LIRP/PSA METAR and TAF weather

Enter ICAO airport designator
Station Type Date Time Source
LIRP METAR 2019/02/21 16:15 UTC NOAA

LIRP 211615Z 28009KT 9999 BKN025 12/08 Q1027 NOSIG


Station Type Date Time Source
LIRP Decoded METAR 2019/02/21 16:15 UTC NOAA

Pisa / S. Giusto, Italy (LIRP) 43-41N 010-23E 6M
Feb 21, 2019 - 11:15 AM EST / 2019.02.21 1615 UTC
Wind: from the W (280 degrees) at 10 MPH (9 KT):0
Visibility: greater than 7 mile(s):0
Sky conditions: mostly cloudy
Temperature: 53 F (12 C)
Dew Point: 46 F (8 C)
Relative Humidity: 76%
Pressure (altimeter): 30.33 in. Hg (1027 hPa)
ob: LIRP 211615Z 28009KT 9999 BKN025 12/08 Q1027 NOSIG
cycle: 16

Station Type Date Time Source
LIRP TAF 2019/02/21 12:21 UTC NOAA

TAF LIRP 211100Z 2112/2212 13006KT 8000 SCT020
BECMG 2118/2120 5000 BR BKN020
TEMPO 2121/2224 1500 BCFG PROB40
TEMPO 2122/2206 0800 FG SCT003


Example: see airport list